createdAt,value
2019-03-30T00:00:41.850Z,26.37
2019-03-30T00:03:10.530Z,26.50
2019-03-30T00:05:39.144Z,24.43
2019-03-30T00:08:07.893Z,22.80
2019-03-30T00:10:36.514Z,24.47
2019-03-30T00:13:05.366Z,22.53
2019-03-30T00:15:34.168Z,24.20
2019-03-30T00:18:02.927Z,26.20
2019-03-30T00:20:31.616Z,23.80
2019-03-30T00:23:00.278Z,21.60
2019-03-30T00:25:28.918Z,21.50
2019-03-30T00:27:57.718Z,20.37
2019-03-30T00:30:26.402Z,19.60
2019-03-30T00:32:55.263Z,19.00
2019-03-30T00:35:23.934Z,20.20
2019-03-30T00:37:52.703Z,19.23
2019-03-30T00:40:21.429Z,18.00
2019-03-30T00:42:50.340Z,17.87
2019-03-30T00:45:19.210Z,19.23
2019-03-30T00:47:48.744Z,17.63
2019-03-30T00:50:17.403Z,18.90
2019-03-30T00:52:45.973Z,19.53
2019-03-30T00:55:14.657Z,19.73
2019-03-30T00:57:43.296Z,16.30
2019-03-30T01:00:12.112Z,13.20
2019-03-30T01:02:40.761Z,14.80
2019-03-30T01:05:09.411Z,12.90
2019-03-30T01:07:38.074Z,13.93
2019-03-30T01:10:07.963Z,15.40
2019-03-30T01:12:36.595Z,14.60
2019-03-30T01:15:06.033Z,13.53
2019-03-30T01:17:34.731Z,14.47
2019-03-30T01:20:03.856Z,13.93
2019-03-30T01:22:32.649Z,13.37
2019-03-30T01:25:01.207Z,12.13
2019-03-30T01:27:29.870Z,13.77
2019-03-30T01:29:58.454Z,16.73
2019-03-30T01:32:27.069Z,12.03
2019-03-30T01:34:56.025Z,12.77
2019-03-30T01:37:24.764Z,14.73
2019-03-30T01:39:53.413Z,13.93
2019-03-30T01:42:22.035Z,15.00
2019-03-30T01:44:51.768Z,12.83
2019-03-30T01:47:20.382Z,12.77
2019-03-30T01:49:50.094Z,12.60
2019-03-30T01:52:18.904Z,13.00
2019-03-30T01:54:47.797Z,13.60
2019-03-30T01:57:16.313Z,14.50
2019-03-30T01:59:44.934Z,13.07
2019-03-30T02:02:14.661Z,13.20
2019-03-30T02:04:43.414Z,13.00
2019-03-30T02:07:12.126Z,14.37
2019-03-30T02:09:40.874Z,13.43
2019-03-30T02:12:09.501Z,15.70
2019-03-30T02:14:38.124Z,13.37
2019-03-30T02:17:06.817Z,13.30
2019-03-30T02:19:35.515Z,15.37
2019-03-30T02:22:04.373Z,13.63
2019-03-30T02:24:32.968Z,16.10
2019-03-30T02:27:01.669Z,13.30
2019-03-30T02:29:30.296Z,15.93
2019-03-30T02:31:58.976Z,14.90
2019-03-30T02:34:27.437Z,16.33
2019-03-30T02:36:56.166Z,16.30
2019-03-30T02:39:24.797Z,15.87
2019-03-30T02:41:53.444Z,16.80
2019-03-30T02:44:22.040Z,16.33
2019-03-30T02:46:50.768Z,14.80
2019-03-30T02:49:19.385Z,15.73
2019-03-30T02:51:50.152Z,15.07
2019-03-30T02:54:18.988Z,16.70
2019-03-30T02:56:47.495Z,15.07
2019-03-30T02:59:16.285Z,15.30
2019-03-30T03:01:45.283Z,13.90
2019-03-30T03:04:13.860Z,16.20
2019-03-30T03:06:42.471Z,13.87
2019-03-30T03:09:11.139Z,15.60
2019-03-30T03:11:39.910Z,14.90
2019-03-30T03:14:08.558Z,16.37
2019-03-30T03:16:37.141Z,15.00
2019-03-30T03:19:05.629Z,13.63
2019-03-30T03:21:34.233Z,14.70
2019-03-30T03:24:02.895Z,14.20
2019-03-30T03:26:31.596Z,15.70
2019-03-30T03:29:00.317Z,15.40
2019-03-30T03:31:29.042Z,15.77
2019-03-30T03:33:57.511Z,17.00
2019-03-30T03:36:26.491Z,18.43
2019-03-30T03:38:55.010Z,16.67
2019-03-30T03:41:23.900Z,15.57
2019-03-30T03:43:52.655Z,17.47
2019-03-30T03:46:21.274Z,15.77
2019-03-30T03:48:49.920Z,17.23
2019-03-30T03:51:26.232Z,18.20
2019-03-30T03:53:51.205Z,16.83
2019-03-30T03:56:21.416Z,18.53
2019-03-30T03:58:50.855Z,20.77
2019-03-30T04:01:20.619Z,19.87
2019-03-30T04:03:51.086Z,16.67
2019-03-30T04:06:21.561Z,14.93
2019-03-30T04:08:53.075Z,16.23
2019-03-30T04:11:22.859Z,16.70
2019-03-30T04:13:52.372Z,16.20
2019-03-30T04:16:20.938Z,18.50
2019-03-30T04:18:49.561Z,16.37
2019-03-30T04:21:18.172Z,16.37
2019-03-30T04:23:46.773Z,17.67
2019-03-30T04:26:15.486Z,16.90
2019-03-30T04:28:44.124Z,17.10
2019-03-30T04:31:12.936Z,15.43
2019-03-30T04:33:41.403Z,15.63
2019-03-30T04:36:13.223Z,15.60
2019-03-30T04:38:41.819Z,17.50
2019-03-30T04:41:10.538Z,15.03
2019-03-30T04:43:39.219Z,16.40
2019-03-30T04:46:07.930Z,15.40
2019-03-30T04:48:36.611Z,17.83
2019-03-30T04:51:06.315Z,18.00
2019-03-30T04:53:35.335Z,20.83
2019-03-30T04:56:05.198Z,15.97
2019-03-30T04:58:33.844Z,18.53
2019-03-30T05:01:02.525Z,18.87
2019-03-30T05:03:31.484Z,17.33
2019-03-30T05:06:00.596Z,18.80
2019-03-30T05:08:29.397Z,18.93
2019-03-30T05:10:57.989Z,16.07
2019-03-30T05:13:26.858Z,18.67
2019-03-30T05:15:55.580Z,16.27
2019-03-30T05:18:24.143Z,20.80
2019-03-30T05:20:52.867Z,29.23
2019-03-30T05:23:21.442Z,21.33
2019-03-30T05:25:50.037Z,17.40
2019-03-30T05:28:18.868Z,19.10
2019-03-30T05:30:48.473Z,16.97
2019-03-30T05:33:17.071Z,15.63
2019-03-30T05:35:45.771Z,15.53
2019-03-30T05:38:14.358Z,13.27
2019-03-30T05:40:43.202Z,13.33
2019-03-30T05:43:11.865Z,15.73
2019-03-30T05:45:41.406Z,13.13
2019-03-30T05:48:10.086Z,12.83
2019-03-30T05:50:38.708Z,14.77
2019-03-30T05:53:08.408Z,15.90
2019-03-30T05:55:37.107Z,15.83
2019-03-30T05:58:05.839Z,15.47
2019-03-30T06:00:34.304Z,14.07
2019-03-30T06:03:03.107Z,12.40
2019-03-30T06:05:32.726Z,14.13
2019-03-30T06:08:01.816Z,15.60
2019-03-30T06:10:30.556Z,27.67
2019-03-30T06:12:59.707Z,44.08
2019-03-30T06:15:28.800Z,61.47
2019-03-30T06:17:58.031Z,16.33
2019-03-30T06:20:27.210Z,60.00
2019-03-30T06:22:56.331Z,29.10
2019-03-30T06:25:25.537Z,60.43
2019-03-30T06:27:54.725Z,13.10
2019-03-30T06:30:27.436Z,15.10
2019-03-30T06:32:56.861Z,12.17
2019-03-30T06:35:26.003Z,12.13
2019-03-30T06:37:55.279Z,15.90
2019-03-30T06:40:24.446Z,13.50
2019-03-30T06:42:53.549Z,13.70
2019-03-30T06:45:22.951Z,196.57
2019-03-30T06:47:52.105Z,238.17
2019-03-30T06:50:21.382Z,362.40
2019-03-30T06:52:57.672Z,535.30
2019-03-30T06:55:21.813Z,243.43
2019-03-30T06:57:52.031Z,34.50
2019-03-30T07:00:33.424Z,35.68
2019-03-30T07:03:04.617Z,159.57
2019-03-30T07:05:42.160Z,28.53
2019-03-30T07:08:16.850Z,32.47
2019-03-30T07:10:46.615Z,12.57
2019-03-30T07:13:16.162Z,10.65
2019-03-30T07:15:48.878Z,14.98
2019-03-30T07:18:18.548Z,13.00
2019-03-30T07:20:47.765Z,19.10
2019-03-30T07:23:17.092Z,28.30
2019-03-30T07:25:46.258Z,10.50
2019-03-30T07:28:15.524Z,13.67
2019-03-30T07:30:44.829Z,81.90
2019-03-30T07:33:14.079Z,56.03
2019-03-30T07:35:43.210Z,19.53
2019-03-30T07:38:12.534Z,50.10
2019-03-30T07:40:41.723Z,15.50
2019-03-30T07:43:11.063Z,12.90
2019-03-30T07:45:40.462Z,12.10
2019-03-30T07:48:09.607Z,11.80
2019-03-30T07:50:38.762Z,26.17
2019-03-30T07:53:07.907Z,94.83
2019-03-30T07:55:36.986Z,13.68
2019-03-30T07:58:07.080Z,19.27
2019-03-30T08:00:36.405Z,19.20
2019-03-30T08:03:05.741Z,11.87
2019-03-30T08:05:35.205Z,13.60
2019-03-30T08:08:04.343Z,11.97
2019-03-30T08:10:33.607Z,23.40
2019-03-30T08:13:02.848Z,15.27
2019-03-30T08:15:31.894Z,22.03
2019-03-30T08:18:01.016Z,17.57
2019-03-30T08:20:30.169Z,13.77
2019-03-30T08:22:59.385Z,10.43
2019-03-30T08:25:43.050Z,10.93
2019-03-30T08:28:12.155Z,15.03
2019-03-30T08:30:41.142Z,15.58
2019-03-30T08:33:10.459Z,13.17
2019-03-30T08:35:39.618Z,18.87
2019-03-30T08:38:08.770Z,12.50
2019-03-30T08:40:38.116Z,12.20
2019-03-30T08:43:07.311Z,12.67
2019-03-30T08:45:36.472Z,15.90
2019-03-30T08:48:05.593Z,13.37
2019-03-30T08:50:34.708Z,15.67
2019-03-30T08:53:04.894Z,13.20
2019-03-30T08:55:34.157Z,13.10
2019-03-30T08:58:03.465Z,15.97
2019-03-30T09:00:42.353Z,18.02
2019-03-30T09:03:11.733Z,17.83
2019-03-30T09:05:40.859Z,15.27
2019-03-30T09:08:10.284Z,15.50
2019-03-30T09:10:40.766Z,18.80
2019-03-30T09:13:09.931Z,15.30
2019-03-30T09:15:39.128Z,25.30
2019-03-30T09:18:08.405Z,19.83
2019-03-30T09:20:37.512Z,23.37
2019-03-30T09:23:06.669Z,134.93
2019-03-30T09:25:35.893Z,168.10
2019-03-30T09:28:05.151Z,24.40
2019-03-30T09:30:34.246Z,19.63
2019-03-30T09:33:03.471Z,19.00
2019-03-30T09:35:33.681Z,28.50
2019-03-30T09:38:02.875Z,21.50
2019-03-30T09:40:32.007Z,29.23
2019-03-30T09:43:01.111Z,20.17
2019-03-30T09:45:30.262Z,76.93
2019-03-30T09:47:59.494Z,24.97
2019-03-30T09:50:28.587Z,23.50
2019-03-30T09:52:57.713Z,20.30
2019-03-30T09:55:27.359Z,24.30
2019-03-30T09:57:56.833Z,19.93
2019-03-30T10:00:26.116Z,19.73
2019-03-30T10:02:55.412Z,21.67
2019-03-30T10:05:28.279Z,20.80
2019-03-30T10:07:58.486Z,20.70
2019-03-30T10:10:27.793Z,21.53
2019-03-30T10:12:57.371Z,19.07
2019-03-30T10:15:26.520Z,20.80
2019-03-30T10:17:55.664Z,19.73
2019-03-30T10:20:24.742Z,18.70
2019-03-30T10:22:53.894Z,21.87
2019-03-30T10:25:23.265Z,20.53
2019-03-30T10:27:52.428Z,21.73
2019-03-30T10:30:21.696Z,21.00
2019-03-30T10:32:50.717Z,22.37
2019-03-30T10:35:19.816Z,21.07
2019-03-30T10:37:49.016Z,21.53
2019-03-30T10:40:20.835Z,22.17
2019-03-30T10:42:49.383Z,20.37
2019-03-30T10:45:18.567Z,22.77
2019-03-30T10:47:47.638Z,19.73
2019-03-30T10:50:16.744Z,25.17
2019-03-30T10:52:45.941Z,24.23
2019-03-30T10:55:15.071Z,24.37
2019-03-30T10:57:44.165Z,25.90
2019-03-30T11:00:18.237Z,23.70
2019-03-30T11:02:48.325Z,23.23
2019-03-30T11:05:17.389Z,20.50
2019-03-30T11:07:46.440Z,25.07
2019-03-30T11:10:15.573Z,23.20
2019-03-30T11:12:44.716Z,23.13
2019-03-30T11:15:13.943Z,23.63
2019-03-30T11:17:43.161Z,52.87
2019-03-30T11:20:12.376Z,24.63
2019-03-30T11:22:41.539Z,22.47
2019-03-30T11:25:10.789Z,26.07
2019-03-30T11:27:39.796Z,22.10
2019-03-30T11:30:09.987Z,23.40
2019-03-30T11:33:11.137Z,26.20
2019-03-30T11:35:40.546Z,23.07
2019-03-30T11:38:09.825Z,24.70
2019-03-30T11:40:38.853Z,25.03
2019-03-30T11:43:08.129Z,22.83
2019-03-30T11:45:37.339Z,24.13
2019-03-30T11:48:06.572Z,20.67
2019-03-30T11:50:35.985Z,22.43
2019-03-30T11:53:05.599Z,21.93
2019-03-30T11:55:34.953Z,21.87
2019-03-30T11:58:04.160Z,23.10
2019-03-30T12:00:33.324Z,24.30
2019-03-30T12:03:03.334Z,24.27
2019-03-30T12:05:32.527Z,26.73
2019-03-30T12:08:01.874Z,22.10
2019-03-30T12:10:31.308Z,24.60
2019-03-30T12:13:01.507Z,23.00
2019-03-30T12:15:31.981Z,24.37
2019-03-30T12:18:01.202Z,26.67
2019-03-30T12:20:30.323Z,25.63
2019-03-30T12:22:59.618Z,27.33
2019-03-30T12:25:35.868Z,25.12
2019-03-30T12:28:01.030Z,26.00
2019-03-30T12:30:30.458Z,24.57
2019-03-30T12:32:59.928Z,25.70
2019-03-30T12:35:29.393Z,25.30
2019-03-30T12:37:58.656Z,25.40
2019-03-30T12:40:28.021Z,24.15
2019-03-30T12:42:57.340Z,28.53
2019-03-30T12:45:27.741Z,23.33
2019-03-30T12:47:57.628Z,24.40
2019-03-30T12:50:27.503Z,25.23
2019-03-30T12:52:56.942Z,26.50
2019-03-30T12:55:26.589Z,25.55
2019-03-30T12:57:56.250Z,25.47
2019-03-30T13:00:26.171Z,22.53
2019-03-30T13:02:55.852Z,23.47
2019-03-30T13:05:26.629Z,23.85
2019-03-30T13:07:57.330Z,23.23
2019-03-30T13:10:27.036Z,24.90
2019-03-30T13:12:56.445Z,22.47
2019-03-30T13:15:26.111Z,24.60
2019-03-30T13:17:55.676Z,22.87
2019-03-30T13:20:25.394Z,22.80
2019-03-30T13:22:55.232Z,22.47
2019-03-30T13:25:25.140Z,25.33
2019-03-30T13:27:54.874Z,26.10
2019-03-30T13:30:24.561Z,23.87
2019-03-30T13:32:54.370Z,26.57
2019-03-30T13:35:24.053Z,21.35
2019-03-30T13:37:53.842Z,22.13
2019-03-30T13:40:23.570Z,22.10
2019-03-30T13:42:52.665Z,21.00
2019-03-30T13:45:21.720Z,21.47
2019-03-30T13:47:50.901Z,23.83
2019-03-30T13:50:20.032Z,24.05
2019-03-30T13:52:49.255Z,23.70
2019-03-30T13:55:18.419Z,26.10
2019-03-30T13:57:47.725Z,41.57
2019-03-30T14:00:16.832Z,24.43
2019-03-30T14:02:45.971Z,22.70
2019-03-30T14:05:15.305Z,22.37
2019-03-30T14:07:45.445Z,22.40
2019-03-30T14:10:14.843Z,22.73
2019-03-30T14:12:43.843Z,23.83
2019-03-30T14:15:13.081Z,24.27
2019-03-30T14:17:42.389Z,21.87
2019-03-30T14:20:12.027Z,21.77
2019-03-30T14:22:41.053Z,18.97
2019-03-30T14:25:10.343Z,27.10
2019-03-30T14:27:39.737Z,21.33
2019-03-30T14:30:10.988Z,20.73
2019-03-30T14:32:40.194Z,27.20
2019-03-30T14:35:09.761Z,23.10
2019-03-30T14:37:38.969Z,23.07
2019-03-30T14:40:08.996Z,23.53
2019-03-30T14:42:39.166Z,20.80
2019-03-30T14:45:08.821Z,20.60
2019-03-30T14:47:38.080Z,20.70
2019-03-30T14:50:08.540Z,21.33
2019-03-30T14:52:37.812Z,20.67
2019-03-30T14:55:07.432Z,22.93
2019-03-30T14:57:36.535Z,21.50
2019-03-30T15:00:06.951Z,24.50
2019-03-30T15:02:36.366Z,25.53
2019-03-30T15:05:07.773Z,21.53
2019-03-30T15:07:37.066Z,23.10
2019-03-30T15:10:07.403Z,22.00
2019-03-30T15:12:36.978Z,24.23
2019-03-30T15:15:06.961Z,25.00
2019-03-30T15:17:36.188Z,22.47
2019-03-30T15:20:05.947Z,28.50
2019-03-30T15:22:35.421Z,23.93
2019-03-30T15:25:05.724Z,22.87
2019-03-30T15:27:34.977Z,23.00
2019-03-30T15:30:05.406Z,24.23
2019-03-30T15:32:34.824Z,22.98
2019-03-30T15:35:04.018Z,21.27
2019-03-30T15:37:33.332Z,24.23
2019-03-30T15:40:02.591Z,23.10
2019-03-30T15:42:31.854Z,24.47
2019-03-30T15:45:01.183Z,23.07
2019-03-30T15:47:30.558Z,26.23
2019-03-30T15:50:00.705Z,25.73
2019-03-30T15:52:30.007Z,22.80
2019-03-30T15:54:59.098Z,24.03
2019-03-30T15:57:28.251Z,23.97
2019-03-30T15:59:57.484Z,22.73
2019-03-30T16:02:26.611Z,24.77
2019-03-30T16:04:55.948Z,21.70
2019-03-30T16:07:25.084Z,24.70
2019-03-30T16:09:55.349Z,24.60
2019-03-30T16:12:24.892Z,25.70
2019-03-30T16:14:54.202Z,26.80
2019-03-30T16:17:23.518Z,21.87
2019-03-30T16:19:53.715Z,25.60
2019-03-30T16:22:22.703Z,22.83
2019-03-30T16:24:52.115Z,23.97
2019-03-30T16:27:28.813Z,24.30
2019-03-30T16:29:52.564Z,24.23
2019-03-30T16:32:21.994Z,22.13
2019-03-30T16:34:51.228Z,22.07
2019-03-30T16:37:21.662Z,23.57
2019-03-30T16:39:52.723Z,23.80
2019-03-30T16:42:21.911Z,19.13
2019-03-30T16:44:51.197Z,19.00
2019-03-30T16:47:20.401Z,19.40
2019-03-30T16:49:49.549Z,21.80
2019-03-30T16:52:18.753Z,21.20
2019-03-30T16:54:47.849Z,19.60
2019-03-30T16:57:17.183Z,21.10
2019-03-30T16:59:46.625Z,21.93
2019-03-30T17:02:15.808Z,22.63
2019-03-30T17:04:45.082Z,23.87
2019-03-30T17:07:14.155Z,23.00
2019-03-30T17:09:43.352Z,21.77
2019-03-30T17:12:14.469Z,23.20
2019-03-30T17:14:43.593Z,18.40
2019-03-30T17:17:12.783Z,42.07
2019-03-30T17:19:42.094Z,46.87
2019-03-30T17:22:11.203Z,49.57
2019-03-30T17:24:40.244Z,48.87
2019-03-30T17:27:09.543Z,46.67
2019-03-30T17:29:38.602Z,48.50
2019-03-30T17:32:07.803Z,53.20
2019-03-30T17:34:37.081Z,52.37
2019-03-30T17:37:06.255Z,46.37
2019-03-30T17:39:35.396Z,52.93
2019-03-30T17:42:04.805Z,50.63
2019-03-30T17:44:34.424Z,49.37
2019-03-30T17:47:03.641Z,50.30
2019-03-30T17:49:32.841Z,51.73
2019-03-30T17:52:02.159Z,52.40
2019-03-30T17:54:31.363Z,55.57
2019-03-30T17:57:00.535Z,50.73
2019-03-30T17:59:29.708Z,49.53
2019-03-30T18:01:58.802Z,53.23
2019-03-30T18:04:28.119Z,50.67
2019-03-30T18:06:57.417Z,54.80
2019-03-30T18:09:26.658Z,53.67
2019-03-30T18:11:55.880Z,54.37
2019-03-30T18:14:25.082Z,51.37
2019-03-30T18:16:54.328Z,59.97
2019-03-30T18:19:23.567Z,60.57
2019-03-30T18:21:52.863Z,68.27
2019-03-30T18:24:23.196Z,71.87
2019-03-30T18:26:52.309Z,67.53
2019-03-30T18:29:21.467Z,60.23
2019-03-30T18:31:50.835Z,71.23
2019-03-30T18:34:20.229Z,61.00
2019-03-30T18:36:51.547Z,60.00
2019-03-30T18:39:21.745Z,64.50
2019-03-30T18:41:51.078Z,62.90
2019-03-30T18:44:20.591Z,64.60
2019-03-30T18:47:10.560Z,60.70
2019-03-30T18:49:42.704Z,65.97
2019-03-30T18:52:14.333Z,60.47
2019-03-30T18:54:44.081Z,56.00
2019-03-30T18:57:13.222Z,59.40
2019-03-30T18:59:42.350Z,57.57
2019-03-30T19:02:11.693Z,56.73
2019-03-30T19:04:40.882Z,53.53
2019-03-30T19:07:10.081Z,55.57
2019-03-30T19:09:39.432Z,61.87
2019-03-30T19:12:08.553Z,61.73
2019-03-30T19:14:38.741Z,64.10
2019-03-30T19:17:09.141Z,73.10
2019-03-30T19:19:38.580Z,66.53
2019-03-30T19:22:08.828Z,68.37
2019-03-30T19:24:38.278Z,61.40
2019-03-30T19:27:08.499Z,59.80
2019-03-30T19:29:37.678Z,56.63
2019-03-30T19:32:06.992Z,56.67
2019-03-30T19:34:36.283Z,55.50
2019-03-30T19:37:05.356Z,60.17
2019-03-30T19:39:34.629Z,61.90
2019-03-30T19:42:04.111Z,60.00
2019-03-30T19:44:33.350Z,59.00
2019-03-30T19:47:02.574Z,55.70
2019-03-30T19:49:31.759Z,54.17
2019-03-30T19:52:00.941Z,54.63
2019-03-30T19:54:30.134Z,54.47
2019-03-30T19:56:59.364Z,55.40
2019-03-30T19:59:28.540Z,55.47
2019-03-30T20:01:57.954Z,54.20
2019-03-30T20:04:27.204Z,55.80
2019-03-30T20:06:56.500Z,61.10
2019-03-30T20:09:25.725Z,52.57
2019-03-30T20:11:54.770Z,55.80
2019-03-30T20:14:23.947Z,59.10
2019-03-30T20:16:54.124Z,57.10
2019-03-30T20:19:23.481Z,60.17
2019-03-30T20:21:52.722Z,62.97
2019-03-30T20:24:21.788Z,54.53
2019-03-30T20:26:50.968Z,60.53
2019-03-30T20:29:25.617Z,62.33
2019-03-30T20:31:52.429Z,62.83
2019-03-30T20:34:21.766Z,59.97
2019-03-30T20:36:51.023Z,56.63
2019-03-30T20:39:20.097Z,58.63
2019-03-30T20:41:49.157Z,56.03
2019-03-30T20:44:19.112Z,61.93
2019-03-30T20:46:48.270Z,51.83
2019-03-30T20:49:17.308Z,59.20
2019-03-30T20:51:46.667Z,67.53
2019-03-30T20:54:15.752Z,62.43
2019-03-30T20:56:44.902Z,60.10
2019-03-30T20:59:14.066Z,59.97
2019-03-30T21:01:43.905Z,56.27
2019-03-30T21:04:13.075Z,58.87
2019-03-30T21:06:42.218Z,61.17
2019-03-30T21:09:12.119Z,57.77
2019-03-30T21:11:41.576Z,64.87
2019-03-30T21:14:11.535Z,61.37
2019-03-30T21:16:41.782Z,59.60
2019-03-30T21:19:11.056Z,58.10
2019-03-30T21:21:40.113Z,59.43
2019-03-30T21:24:09.170Z,61.30
2019-03-30T21:26:38.375Z,61.37
2019-03-30T21:29:07.456Z,61.70
2019-03-30T21:31:36.803Z,63.70
2019-03-30T21:34:05.963Z,58.47
2019-03-30T21:36:35.012Z,61.77
2019-03-30T21:39:06.929Z,56.90
2019-03-30T21:41:36.025Z,73.77
2019-03-30T21:44:05.483Z,72.23
2019-03-30T21:46:34.759Z,58.73
2019-03-30T21:49:04.237Z,61.07
2019-03-30T21:51:33.435Z,65.20
2019-03-30T21:54:02.794Z,58.17
2019-03-30T21:56:31.878Z,63.67
2019-03-30T21:59:01.167Z,59.03
2019-03-30T22:01:30.228Z,59.40
2019-03-30T22:03:59.511Z,54.50
2019-03-30T22:06:28.762Z,55.37
2019-03-30T22:08:59.388Z,54.73
2019-03-30T22:11:28.801Z,47.77
2019-03-30T22:13:58.156Z,52.77
2019-03-30T22:16:27.399Z,49.30
2019-03-30T22:18:57.658Z,46.70
2019-03-30T22:21:26.873Z,49.07
2019-03-30T22:23:55.950Z,49.40
2019-03-30T22:26:25.052Z,57.20
2019-03-30T22:28:54.262Z,53.93
2019-03-30T22:31:23.378Z,49.97
2019-03-30T22:33:52.573Z,53.27
2019-03-30T22:36:22.881Z,53.67
2019-03-30T22:38:52.260Z,56.57
2019-03-30T22:41:21.377Z,52.67
2019-03-30T22:43:50.542Z,50.10
2019-03-30T22:46:19.499Z,47.83
2019-03-30T22:48:48.753Z,48.97
2019-03-30T22:51:17.903Z,43.77
2019-03-30T22:53:46.949Z,46.17
2019-03-30T22:56:16.185Z,49.20
2019-03-30T22:58:45.377Z,49.67
2019-03-30T23:01:16.890Z,48.63
2019-03-30T23:03:47.794Z,46.00
2019-03-30T23:06:17.013Z,47.90
2019-03-30T23:08:46.329Z,46.63
2019-03-30T23:11:15.604Z,44.93
2019-03-30T23:13:44.693Z,43.27
2019-03-30T23:16:14.003Z,41.60
2019-03-30T23:18:45.315Z,36.97
2019-03-30T23:21:15.087Z,35.47
2019-03-30T23:23:44.382Z,36.73
2019-03-30T23:26:13.642Z,32.60
2019-03-30T23:28:42.863Z,32.77
2019-03-30T23:31:12.037Z,27.83
2019-03-30T23:33:41.369Z,28.43
2019-03-30T23:36:10.399Z,29.57
2019-03-30T23:38:39.673Z,28.33
2019-03-30T23:41:08.656Z,27.57
2019-03-30T23:43:37.974Z,26.47
2019-03-30T23:46:07.135Z,26.37
2019-03-30T23:48:36.588Z,28.50
2019-03-30T23:51:06.206Z,27.20
2019-03-30T23:53:35.321Z,26.80
2019-03-30T23:56:18.117Z,28.20
2019-03-30T23:58:47.332Z,27.17
